Time;durP1;ratioP1;P1;durP2;ratioP2;P2;SDS_P1;SDS_P2;PMS_P1;PMS_P2;Temp;Humidity;BMP_temperature;BMP_pressure;BME280_temperature;BME280_humidity;BME280_pressure;Samples;Min_cycle;Max_cycle;Signal;HPM_P1;HPM_P2
2022/08/24 00:02:16;;;;;;;;;;;;;;;23.52;100.00;98136.28;5123265;28;19988;-62
2022/08/24 00:04:42;;;;;;;;;;;;;;;23.55;100.00;98129.38;5122646;28;19920;-61
2022/08/24 00:07:09;;;;;;;;;;;;;;;23.53;100.00;98135.16;5119747;28;19988;-61
2022/08/24 00:09:36;;;;;;;;;;;;;;;23.50;100.00;98132.31;5119434;28;19926;-62
2022/08/24 00:12:04;;;;;;;;;;;;;;;23.55;100.00;98130.13;5122421;28;19978;-61
2022/08/24 00:14:31;;;;;;;;;;;;;;;23.42;100.00;98136.75;5123009;28;20703;-61
2022/08/24 00:16:58;;;;;;;;;;;;;;;22.66;100.00;98132.97;5120497;28;19924;-61
2022/08/24 00:19:26;;;;;;;;;;;;;;;21.93;100.00;98135.34;5119308;28;20058;-61
2022/08/24 00:21:53;;;;;;;;;;;;;;;22.23;100.00;98139.59;5120963;28;19952;-61
2022/08/24 00:24:20;;;;;;;;;;;;;;;22.80;100.00;98130.75;5123780;28;20359;-61
2022/08/24 00:26:47;;;;;;;;;;;;;;;22.74;100.00;98132.91;5121708;28;19935;-60
2022/08/24 00:29:16;;;;;;;;;;;;;;;23.08;100.00;98137.16;5119275;28;19946;-61
2022/08/24 00:31:42;;;;;;;;;;;;;;;23.22;100.00;98134.09;5119243;28;19951;-62
2022/08/24 00:34:09;;;;;;;;;;;;;;;23.02;100.00;98127.63;5123007;28;19924;-61
2022/08/24 00:36:36;;;;;;;;;;;;;;;23.00;100.00;98138.84;5122775;28;19999;-61
2022/08/24 00:39:04;;;;;;;;;;;;;;;23.18;100.00;98131.25;5119829;28;19959;-62
2022/08/24 00:41:30;;;;;;;;;;;;;;;23.20;100.00;98129.00;5101472;28;19923;-61
2022/08/24 00:43:58;;;;;;;;;;;;;;;23.19;100.00;98132.84;5121315;28;19935;-62
2022/08/24 00:46:28;;;;;;;;;;;;;;;23.22;100.00;98129.44;5122959;28;19959;-61
2022/08/24 00:48:58;;;;;;;;;;;;;;;23.17;100.00;98124.22;5120487;28;19978;-61
2022/08/24 00:51:30;;;;;;;;;;;;;;;23.18;100.00;98130.47;5119091;28;19967;-61
2022/08/24 00:54:01;;;;;;;;;;;;;;;23.24;100.00;98131.84;5129891;28;20480;-61
2022/08/24 00:56:29;;;;;;;;;;;;;;;23.21;100.00;98125.13;5122393;28;19920;-62
2022/08/24 00:58:57;;;;;;;;;;;;;;;22.92;100.00;98128.06;5120091;28;19987;-62
2022/08/24 01:01:24;;;;;;;;;;;;;;;22.60;100.00;98130.44;5118659;28;19924;-62
2022/08/24 01:03:53;;;;;;;;;;;;;;;22.09;100.00;98127.41;5119744;28;19966;-62
2022/08/24 01:06:19;;;;;;;;;;;;;;;22.40;100.00;98125.84;5122338;28;19991;-62
2022/08/24 01:08:45;;;;;;;;;;;;;;;22.69;100.00;98133.09;5121485;28;20397;-62
2022/08/24 01:11:14;;;;;;;;;;;;;;;22.78;100.00;98130.28;5100529;28;19928;-62
2022/08/24 01:13:42;;;;;;;;;;;;;;;22.49;100.00;98136.66;5118641;28;20015;-62
2022/08/24 01:16:09;;;;;;;;;;;;;;;21.99;100.00;98137.53;5121379;28;19920;-61
2022/08/24 01:18:50;;;;;;;;;;;;;;;21.82;100.00;98137.63;5122851;28;19970;-62
2022/08/24 01:21:19;;;;;;;;;;;;;;;22.04;100.00;98136.53;5122787;28;19970;-62
2022/08/24 01:23:48;;;;;;;;;;;;;;;22.00;100.00;98130.97;5123738;27;19966;-61
2022/08/24 01:26:17;;;;;;;;;;;;;;;22.47;100.00;98128.81;5126093;28;19995;-62
2022/08/24 01:28:45;;;;;;;;;;;;;;;22.55;100.00;98121.69;5125504;28;19924;-60
2022/08/24 01:31:11;;;;;;;;;;;;;;;22.63;100.00;98118.06;5122480;28;19963;-62
2022/08/24 01:33:38;;;;;;;;;;;;;;;22.71;100.00;98122.69;5122399;28;19924;-61
2022/08/24 01:36:06;;;;;;;;;;;;;;;22.73;100.00;98125.84;5125577;28;19953;-62
2022/08/24 01:38:33;;;;;;;;;;;;;;;22.75;100.00;98122.78;5125823;28;19923;-62
2022/08/24 01:41:01;;;;;;;;;;;;;;;22.73;100.00;98120.41;5123448;28;20007;-62
2022/08/24 01:43:27;;;;;;;;;;;;;;;22.71;100.00;98136.28;5122390;28;19924;-61
2022/08/24 01:45:54;;;;;;;;;;;;;;;22.67;100.00;98123.69;5123893;28;19960;-62
2022/08/24 01:48:20;;;;;;;;;;;;;;;22.63;100.00;98125.44;5125908;28;19972;-62
2022/08/24 01:50:47;;;;;;;;;;;;;;;22.60;100.00;98126.91;5124799;28;19970;-61
2022/08/24 01:53:13;;;;;;;;;;;;;;;22.62;100.00;98124.66;5122000;28;19951;-61
2022/08/24 01:55:41;;;;;;;;;;;;;;;22.59;100.00;98131.56;5122787;27;19952;-61
2022/08/24 01:58:09;;;;;;;;;;;;;;;22.59;100.00;98126.13;5113629;28;19931;-62
2022/08/24 02:00:36;;;;;;;;;;;;;;;22.60;100.00;98129.63;5113577;28;20012;-61
2022/08/24 02:03:02;;;;;;;;;;;;;;;22.53;100.00;98132.91;5113357;28;19954;-62
2022/08/24 02:05:29;;;;;;;;;;;;;;;22.58;100.00;98131.91;5113411;28;19980;-61
2022/08/24 02:07:57;;;;;;;;;;;;;;;22.51;100.00;98124.28;5113255;28;19920;-61
2022/08/24 02:10:24;;;;;;;;;;;;;;;22.46;100.00;98131.88;5113425;28;19924;-61
2022/08/24 02:12:57;;;;;;;;;;;;;;;22.50;100.00;98133.56;5113236;28;19999;-62
2022/08/24 02:15:26;;;;;;;;;;;;;;;22.45;100.00;98133.78;5113345;28;19985;-63
2022/08/24 02:17:52;;;;;;;;;;;;;;;22.44;100.00;98129.47;5113077;28;19940;-61
2022/08/24 02:20:20;;;;;;;;;;;;;;;22.41;100.00;98127.41;5113315;28;19924;-62
2022/08/24 02:22:47;;;;;;;;;;;;;;;22.40;100.00;98131.28;5113026;28;20384;-62
2022/08/24 02:25:13;;;;;;;;;;;;;;;22.44;100.00;98132.19;5122557;27;19935;-61
2022/08/24 02:27:40;;;;;;;;;;;;;;;21.98;100.00;98135.94;5120125;28;19951;-61
2022/08/24 02:30:07;;;;;;;;;;;;;;;22.23;100.00;98136.88;5124799;28;19923;-61
2022/08/24 02:32:34;;;;;;;;;;;;;;;22.03;100.00;98127.56;5125044;28;19966;-61
2022/08/24 02:35:01;;;;;;;;;;;;;;;21.60;100.00;98142.59;5122163;28;19931;-62
2022/08/24 02:37:27;;;;;;;;;;;;;;;21.58;100.00;98144.81;5121156;28;20301;-61
2022/08/24 02:39:53;;;;;;;;;;;;;;;22.03;100.00;98140.41;5122800;28;19992;-61
2022/08/24 02:42:20;;;;;;;;;;;;;;;22.15;100.00;98145.91;5124682;28;19970;-60
2022/08/24 02:44:46;;;;;;;;;;;;;;;22.17;100.00;98140.91;5123744;28;19934;-61
2022/08/24 02:47:13;;;;;;;;;;;;;;;22.18;100.00;98139.00;5121394;28;19935;-60
2022/08/24 02:49:41;;;;;;;;;;;;;;;22.21;100.00;98143.78;5121166;28;19966;-61
2022/08/24 02:52:07;;;;;;;;;;;;;;;22.16;100.00;98138.53;5112774;28;19924;-61
2022/08/24 02:54:33;;;;;;;;;;;;;;;22.13;100.00;98139.97;5120953;27;19965;-61
2022/08/24 02:57:00;;;;;;;;;;;;;;;22.21;100.00;98141.84;5122022;28;19996;-61
2022/08/24 02:59:26;;;;;;;;;;;;;;;22.04;100.00;98142.78;5120976;28;20031;-61
2022/08/24 03:01:52;;;;;;;;;;;;;;;22.22;100.00;98150.81;5122405;28;19959;-60
2022/08/24 03:04:19;;;;;;;;;;;;;;;22.14;100.00;98152.47;5124419;28;19961;-61
2022/08/24 03:06:47;;;;;;;;;;;;;;;22.04;100.00;98152.84;5105632;28;19951;-61
2022/08/24 03:09:14;;;;;;;;;;;;;;;22.03;100.00;98154.78;5120860;28;19924;-62
2022/08/24 03:11:40;;;;;;;;;;;;;;;22.07;100.00;98157.63;5120742;28;19951;-61
2022/08/24 03:14:07;;;;;;;;;;;;;;;22.05;100.00;98154.47;5124299;28;19986;-61
2022/08/24 03:16:34;;;;;;;;;;;;;;;22.04;100.00;98153.66;5124363;28;20011;-61
2022/08/24 03:19:00;;;;;;;;;;;;;;;22.07;100.00;98152.19;5121613;28;19931;-62
2022/08/24 03:21:27;;;;;;;;;;;;;;;22.11;100.00;98147.69;5120865;28;19988;-62
2022/08/24 03:23:54;;;;;;;;;;;;;;;21.48;100.00;98154.94;5123067;28;19974;-61
2022/08/24 03:26:21;;;;;;;;;;;;;;;21.15;100.00;98153.19;5124256;28;19951;-61
2022/08/24 03:28:48;;;;;;;;;;;;;;;20.87;100.00;98163.63;5123126;28;19924;-61
2022/08/24 03:31:14;;;;;;;;;;;;;;;20.44;100.00;98153.66;5120657;28;19988;-61
2022/08/24 03:33:41;;;;;;;;;;;;;;;20.36;100.00;98159.09;5102378;28;19966;-61
2022/08/24 03:36:07;;;;;;;;;;;;;;;20.65;100.00;98151.06;5120573;28;19920;-61
2022/08/24 03:38:34;;;;;;;;;;;;;;;20.81;100.00;98156.78;5120102;28;19959;-60
2022/08/24 03:41:01;;;;;;;;;;;;;;;20.92;100.00;98160.75;5105016;28;20058;-61
2022/08/24 03:43:47;;;;;;;;;;;;;;;21.16;100.00;98157.50;5124085;28;19951;-61
2022/08/24 03:46:14;;;;;;;;;;;;;;;21.60;100.00;98167.03;5120352;28;19924;-61
2022/08/24 03:48:43;;;;;;;;;;;;;;;21.64;100.00;98171.47;5101865;28;19924;-61
2022/08/24 03:51:10;;;;;;;;;;;;;;;21.42;100.00;98166.31;5111666;28;19920;-61
2022/08/24 03:53:36;;;;;;;;;;;;;;;21.02;100.00;98171.25;5111601;28;19964;-61
2022/08/24 03:56:04;;;;;;;;;;;;;;;21.50;100.00;98177.16;5124075;27;19984;-61
2022/08/24 03:58:31;;;;;;;;;;;;;;;21.70;100.00;98170.16;5123477;28;19923;-62
2022/08/24 04:00:57;;;;;;;;;;;;;;;21.69;100.00;98171.31;5121133;28;19923;-61
2022/08/24 04:03:23;;;;;;;;;;;;;;;21.75;100.00;98169.19;5119942;28;19920;-61
2022/08/24 04:05:50;;;;;;;;;;;;;;;21.77;100.00;98173.16;5120792;28;19986;-60
2022/08/24 04:08:16;;;;;;;;;;;;;;;21.71;100.00;98162.81;5123480;28;19931;-61
2022/08/24 04:10:44;;;;;;;;;;;;;;;21.69;100.00;98167.78;5122946;28;19987;-60
2022/08/24 04:13:12;;;;;;;;;;;;;;;21.68;100.00;98166.19;5119735;28;19995;-61
2022/08/24 04:15:39;;;;;;;;;;;;;;;21.19;100.00;98165.78;5119596;28;20381;-61
2022/08/24 04:18:06;;;;;;;;;;;;;;;20.69;100.00;98164.78;5122854;28;19924;-61
2022/08/24 04:20:37;;;;;;;;;;;;;;;20.78;100.00;98154.69;5123133;28;19947;-62
2022/08/24 04:23:03;;;;;;;;;;;;;;;21.12;100.00;98161.97;5119878;28;19928;-61
2022/08/24 04:25:29;;;;;;;;;;;;;;;21.30;100.00;98168.94;5120331;27;19967;-61
2022/08/24 04:27:56;;;;;;;;;;;;;;;21.36;100.00;98165.72;5121064;28;19931;-61
2022/08/24 04:30:23;;;;;;;;;;;;;;;21.39;100.00;98165.06;5122661;28;19941;-61
2022/08/24 04:32:50;;;;;;;;;;;;;;;21.42;100.00;98164.41;5121407;28;19962;-61
2022/08/24 04:35:16;;;;;;;;;;;;;;;21.50;100.00;98160.88;5119332;28;19959;-60
2022/08/24 04:37:43;;;;;;;;;;;;;;;21.48;100.00;98165.81;5118958;28;19964;-61
2022/08/24 04:40:09;;;;;;;;;;;;;;;21.36;100.00;98160.28;5122700;28;19984;-62
2022/08/24 04:42:36;;;;;;;;;;;;;;;21.42;100.00;98167.13;5122601;28;19931;-62
2022/08/24 04:45:02;;;;;;;;;;;;;;;21.45;100.00;98173.81;5119828;28;19968;-61
2022/08/24 04:47:30;;;;;;;;;;;;;;;21.15;100.00;98170.28;5119416;28;19934;-61
2022/08/24 04:49:56;;;;;;;;;;;;;;;21.10;100.00;98162.31;5120113;28;19928;-61
2022/08/24 04:52:23;;;;;;;;;;;;;;;21.01;100.00;98173.16;5122637;28;19935;-62
2022/08/24 04:54:49;;;;;;;;;;;;;;;21.17;100.00;98178.88;5122346;28;19966;-62
2022/08/24 04:57:15;;;;;;;;;;;;;;;21.19;100.00;98176.66;5118911;28;20300;-61
2022/08/24 04:59:42;;;;;;;;;;;;;;;20.72;100.00;98192.09;5118792;28;19920;-62
2022/08/24 05:02:09;;;;;;;;;;;;;;;20.12;100.00;98197.47;5110382;28;19920;-61
2022/08/24 05:04:37;;;;;;;;;;;;;;;20.11;100.00;98190.47;5110333;28;19930;-62
2022/08/24 05:07:03;;;;;;;;;;;;;;;20.36;100.00;98187.00;5110383;28;19943;-61
2022/08/24 05:09:30;;;;;;;;;;;;;;;20.57;100.00;98191.78;5110273;28;19930;-61
2022/08/24 05:11:57;;;;;;;;;;;;;;;20.36;100.00;98192.41;5110096;28;19920;-62
2022/08/24 05:14:23;;;;;;;;;;;;;;;20.43;100.00;98192.75;5110217;28;19931;-61
2022/08/24 05:16:49;;;;;;;;;;;;;;;20.69;100.00;98191.94;5109909;28;19963;-61
2022/08/24 05:19:16;;;;;;;;;;;;;;;20.16;100.00;98198.44;5110332;28;19959;-62
2022/08/24 05:21:43;;;;;;;;;;;;;;;20.26;100.00;98200.88;5110120;28;19920;-61
2022/08/24 05:24:10;;;;;;;;;;;;;;;20.55;100.00;98194.03;5115163;28;19924;-62
2022/08/24 05:26:36;;;;;;;;;;;;;;;20.79;100.00;98202.44;5122074;28;19924;-62
2022/08/24 05:29:04;;;;;;;;;;;;;;;20.28;100.00;98206.78;5118931;28;19935;-61
2022/08/24 05:31:32;;;;;;;;;;;;;;;20.52;100.00;98195.44;5118454;28;19924;-61
2022/08/24 05:33:58;;;;;;;;;;;;;;;20.90;100.00;98196.34;5120504;28;20000;-61
2022/08/24 05:36:26;;;;;;;;;;;;;;;20.63;100.00;98196.72;5121659;28;19999;-61
2022/08/24 05:38:54;;;;;;;;;;;;;;;20.15;100.00;98196.03;5120249;28;19959;-61
2022/08/24 05:41:21;;;;;;;;;;;;;;;20.78;100.00;98190.78;5118392;28;19948;-61
2022/08/24 05:43:47;;;;;;;;;;;;;;;20.67;100.00;98203.13;5118895;28;20595;-61
2022/08/24 05:46:14;;;;;;;;;;;;;;;20.36;100.00;98214.13;5103992;28;19920;-61
2022/08/24 05:48:41;;;;;;;;;;;;;;;20.43;100.00;98214.44;5121830;28;19923;-61
2022/08/24 05:51:08;;;;;;;;;;;;;;;20.56;100.00;98207.25;5118066;28;19983;-62
2022/08/24 05:53:35;;;;;;;;;;;;;;;20.49;100.00;98217.00;5118284;28;19935;-62
2022/08/24 05:56:04;;;;;;;;;;;;;;;20.94;100.00;98215.50;5122105;28;19959;-61
2022/08/24 05:58:30;;;;;;;;;;;;;;;20.82;100.00;98213.47;5121802;28;19991;-61
2022/08/24 06:00:58;;;;;;;;;;;;;;;20.63;100.00;98214.91;5119681;28;19935;-62
2022/08/24 06:03:25;;;;;;;;;;;;;;;20.46;100.00;98218.44;5122034;28;19924;-62
2022/08/24 06:05:51;;;;;;;;;;;;;;;20.85;100.00;98214.72;5123135;28;19924;-62
2022/08/24 06:08:18;;;;;;;;;;;;;;;21.10;100.00;98213.91;5125449;28;19920;-60
2022/08/24 06:10:46;;;;;;;;;;;;;;;21.28;100.00;98212.75;5124865;28;19983;-61
2022/08/24 06:13:14;;;;;;;;;;;;;;;21.14;100.00;98217.56;5121969;28;19927;-61
2022/08/24 06:15:41;;;;;;;;;;;;;;;21.15;100.00;98212.94;5121632;28;19934;-62
2022/08/24 06:18:08;;;;;;;;;;;;;;;20.81;100.00;98220.00;5103747;28;19951;-61
2022/08/24 06:20:38;;;;;;;;;;;;;;;20.76;100.00;98222.09;5121663;28;19978;-61
2022/08/24 06:23:04;;;;;;;;;;;;;;;20.55;100.00;98219.22;5124834;28;19966;-61
2022/08/24 06:28:16;;;;;;;;;;;;;;;20.53;100.00;98217.94;5121514;28;19930;-61
2022/08/24 06:30:42;;;;;;;;;;;;;;;20.46;100.00;98219.22;5103276;28;19970;-62
2022/08/24 06:33:09;;;;;;;;;;;;;;;20.38;100.00;98221.94;5124789;28;19935;-61
2022/08/24 06:35:36;;;;;;;;;;;;;;;20.33;100.00;98214.75;5124734;28;19923;-62
2022/08/24 06:38:03;;;;;;;;;;;;;;;20.41;100.00;98211.25;5121670;28;19971;-61
2022/08/24 06:40:29;;;;;;;;;;;;;;;20.69;100.00;98208.22;5121277;28;19977;-61
2022/08/24 06:42:56;;;;;;;;;;;;;;;20.88;100.00;98208.66;5122797;28;19935;-61
2022/08/24 06:45:23;;;;;;;;;;;;;;;21.01;100.00;98216.59;5124651;28;19947;-61
2022/08/24 06:47:50;;;;;;;;;;;;;;;21.12;100.00;98216.28;5123456;28;19967;-62
2022/08/24 06:50:17;;;;;;;;;;;;;;;20.99;100.00;98209.91;5121140;28;19928;-62
2022/08/24 06:52:43;;;;;;;;;;;;;;;21.35;100.00;98218.44;5121013;28;19925;-61
2022/08/24 06:55:10;;;;;;;;;;;;;;;21.71;100.00;98217.19;5129946;27;19966;-61
2022/08/24 06:57:36;;;;;;;;;;;;;;;21.79;100.00;98217.13;5120976;28;19953;-61
2022/08/24 07:00:04;;;;;;;;;;;;;;;21.93;100.00;98219.66;5123758;28;19970;-61
2022/08/24 07:02:32;;;;;;;;;;;;;;;21.99;100.00;98227.28;5124177;28;19961;-61
2022/08/24 07:04:58;;;;;;;;;;;;;;;22.10;100.00;98218.75;5103773;28;19930;-61
2022/08/24 07:07:25;;;;;;;;;;;;;;;22.22;100.00;98214.16;5120804;28;19931;-61
2022/08/24 07:09:51;;;;;;;;;;;;;;;22.33;100.00;98231.69;5121808;28;19955;-62
2022/08/24 07:12:17;;;;;;;;;;;;;;;22.38;100.00;98225.25;5123965;28;19928;-61
2022/08/24 07:14:44;;;;;;;;;;;;;;;22.40;100.00;98225.72;5123229;28;19920;-61
2022/08/24 07:17:10;;;;;;;;;;;;;;;22.46;100.00;98218.97;5120427;28;20404;-62
2022/08/24 07:19:38;;;;;;;;;;;;;;;22.50;100.00;98226.13;5120447;28;19935;-62
2022/08/24 07:22:04;;;;;;;;;;;;;;;22.40;100.00;98236.63;5123437;28;20381;-62
2022/08/24 07:24:31;;;;;;;;;;;;;;;22.07;100.00;98241.94;5125085;27;19962;-61
2022/08/24 07:26:57;;;;;;;;;;;;;;;22.26;100.00;98236.88;5121993;28;19959;-60
2022/08/24 07:29:23;;;;;;;;;;;;;;;22.11;100.00;98234.72;5120263;28;20026;-61
2022/08/24 07:31:50;;;;;;;;;;;;;;;22.27;100.00;98237.66;5121109;28;19954;-62
2022/08/24 07:34:16;;;;;;;;;;;;;;;22.35;100.00;98228.63;5124051;28;19920;-61
2022/08/24 07:36:44;;;;;;;;;;;;;;;22.37;100.00;98221.75;5123519;28;20001;-61
2022/08/24 07:39:10;;;;;;;;;;;;;;;22.37;100.00;98227.19;5120034;28;19946;-61
2022/08/24 07:41:38;;;;;;;;;;;;;;;22.50;100.00;98226.13;5120167;28;19946;-61
2022/08/24 07:44:04;;;;;;;;;;;;;;;22.35;100.00;98226.72;5105092;28;19995;-60
2022/08/24 07:46:31;;;;;;;;;;;;;;;22.36;100.00;98228.31;5105449;28;20030;-61
2022/08/24 07:48:57;;;;;;;;;;;;;;;22.17;100.00;98225.25;5121311;28;19927;-61
2022/08/24 07:51:26;;;;;;;;;;;;;;;22.11;100.00;98229.28;5119835;28;19924;-62
2022/08/24 07:53:54;;;;;;;;;;;;;;;22.04;100.00;98229.00;5122359;27;19955;-61
2022/08/24 07:56:20;;;;;;;;;;;;;;;22.13;100.00;98227.03;5105403;28;19931;-61
2022/08/24 07:58:47;;;;;;;;;;;;;;;21.78;100.00;98228.34;5122265;28;19923;-62
2022/08/24 08:01:13;;;;;;;;;;;;;;;21.59;100.00;98228.75;5119370;28;19924;-62
2022/08/24 08:03:39;;;;;;;;;;;;;;;21.81;100.00;98225.78;5119276;28;19924;-61
2022/08/24 08:06:07;;;;;;;;;;;;;;;22.08;100.00;98224.50;5122572;28;20063;-61
2022/08/24 08:08:34;;;;;;;;;;;;;;;22.09;100.00;98217.16;5122789;28;19958;-61
2022/08/24 08:11:02;;;;;;;;;;;;;;;22.06;100.00;98229.50;5120011;28;19974;-61
2022/08/24 08:13:29;;;;;;;;;;;;;;;22.04;100.00;98220.84;5101092;28;19963;-62
2022/08/24 08:15:56;;;;;;;;;;;;;;;22.11;100.00;98223.06;5120931;28;19924;-62
2022/08/24 08:18:23;;;;;;;;;;;;;;;22.16;100.00;98223.66;5122804;28;19924;-61
2022/08/24 08:20:49;;;;;;;;;;;;;;;22.22;100.00;98224.28;5121686;28;20585;-61
2022/08/24 08:26:00;;;;;;;;;;;;;;;22.41;100.00;98227.31;5122709;27;19983;-60
2022/08/24 08:28:31;;;;;;;;;;;;;;;22.34;100.00;98229.78;5122698;28;19946;-61
2022/08/24 08:30:58;;;;;;;;;;;;;;;22.45;100.00;98229.03;5120035;28;19945;-61
2022/08/24 08:33:25;;;;;;;;;;;;;;;22.49;100.00;98229.97;5119080;28;20015;-61
2022/08/24 08:35:52;;;;;;;;;;;;;;;22.60;100.00;98223.00;5119934;28;19936;-61
2022/08/24 08:38:19;;;;;;;;;;;;;;;22.52;100.00;98228.50;5122446;28;19991;-61
2022/08/24 08:40:54;;;;;;;;;;;;;;;22.47;100.00;98226.78;5122028;28;19920;-61
2022/08/24 08:43:32;;;;;;;;;;;;;;;22.41;100.00;98230.81;5118655;28;19970;-62
2022/08/24 08:46:11;;;;;;;;;;;;;;;22.36;100.00;98228.31;5121160;28;19935;-60
2022/08/24 08:48:55;;;;;;;;;;;;;;;22.45;100.00;98222.81;5122196;28;19991;-61
2022/08/24 08:51:33;;;;;;;;;;;;;;;22.58;100.00;98230.69;5118958;28;19962;-60
2022/08/24 08:54:11;;;;;;;;;;;;;;;22.72;100.00;98232.34;5122253;28;19934;-62
2022/08/24 08:56:44;;;;;;;;;;;;;;;22.89;100.00;98229.50;5122320;28;20427;-60
2022/08/24 08:59:14;;;;;;;;;;;;;;;22.95;100.00;98215.34;5118828;28;20286;-61
2022/08/24 09:01:47;;;;;;;;;;;;;;;22.87;100.00;98220.88;5118509;28;19920;-61
2022/08/24 09:04:25;;;;;;;;;;;;;;;22.95;100.00;98231.69;5118602;28;19920;-62
2022/08/24 09:07:03;;;;;;;;;;;;;;;23.05;100.00;98222.28;5119676;28;19935;-61
2022/08/24 09:09:42;;;;;;;;;;;;;;;23.13;100.00;98232.28;5121890;28;19931;-61
2022/08/24 09:12:15;;;;;;;;;;;;;;;23.00;100.00;98227.94;5100740;28;20000;-61
2022/08/24 09:14:51;;;;;;;;;;;;;;;23.21;100.00;98228.66;5118516;28;19963;-61
2022/08/24 09:17:31;;;;;;;;;;;;;;;23.50;100.00;98225.78;5110100;28;19924;-61
2022/08/24 09:20:07;;;;;;;;;;;;;;;23.33;100.00;98225.97;5109911;28;19924;-61
2022/08/24 09:22:37;;;;;;;;;;;;;;;23.43;100.00;98225.56;5110207;28;19966;-61
2022/08/24 09:25:14;;;;;;;;;;;;;;;23.32;100.00;98216.22;5119685;27;19995;-62
2022/08/24 09:27:45;;;;;;;;;;;;;;;23.31;100.00;98220.06;5118544;28;19924;-61
2022/08/24 09:30:13;;;;;;;;;;;;;;;23.17;100.00;98219.59;5118571;28;20348;-61
2022/08/24 09:32:55;;;;;;;;;;;;;;;23.36;100.00;98214.41;5118303;28;19954;-63
2022/08/24 09:35:26;;;;;;;;;;;;;;;23.48;100.00;98211.72;5118507;28;19924;-62
2022/08/24 09:37:57;;;;;;;;;;;;;;;23.66;100.00;98217.75;5123155;28;19924;-61
2022/08/24 09:40:31;;;;;;;;;;;;;;;23.61;100.00;98218.75;5126123;28;19947;-63
2022/08/24 09:43:16;;;;;;;;;;;;;;;23.69;100.00;98208.06;5123856;28;19920;-62
2022/08/24 09:45:57;;;;;;;;;;;;;;;23.81;100.00;98217.06;5122269;28;19927;-61
2022/08/24 09:48:41;;;;;;;;;;;;;;;23.75;100.00;98212.16;5112778;28;19924;-62
2022/08/24 09:51:21;;;;;;;;;;;;;;;24.02;100.00;98211.47;5113776;28;19925;-61
2022/08/24 09:54:00;;;;;;;;;;;;;;;24.24;100.00;98218.38;5115681;27;19920;-62
2022/08/24 09:56:37;;;;;;;;;;;;;;;24.20;100.00;98215.56;5125798;28;19923;-61
2022/08/24 09:59:12;;;;;;;;;;;;;;;24.15;100.00;98221.25;5122988;28;19974;-63
2022/08/24 10:01:42;;;;;;;;;;;;;;;24.32;100.00;98217.47;5122254;28;19988;-62
2022/08/24 10:04:20;;;;;;;;;;;;;;;24.39;100.00;98210.28;5113804;28;19924;-62
2022/08/24 10:06:57;;;;;;;;;;;;;;;24.42;100.00;98223.22;5113522;28;20025;-61
2022/08/24 10:09:39;;;;;;;;;;;;;;;24.46;100.00;98207.75;5113507;28;19930;-62
2022/08/24 10:12:13;;;;;;;;;;;;;;;24.49;100.00;98206.25;5113301;28;19972;-62
2022/08/24 10:14:44;;;;;;;;;;;;;;;24.57;100.00;98203.38;5113193;28;19960;-62
2022/08/24 10:17:17;;;;;;;;;;;;;;;24.27;100.00;98204.84;5121794;28;19991;-62
2022/08/24 10:20:01;;;;;;;;;;;;;;;24.20;100.00;98204.66;5121637;28;19924;-61
2022/08/24 10:22:33;;;;;;;;;;;;;;;24.14;100.00;98187.69;5124998;28;19924;-61
2022/08/24 10:25:27;;;;;;;;;;;;;;;24.35;100.00;98189.47;5123809;27;20117;-63
2022/08/24 10:27:59;;;;;;;;;;;;;;;24.44;100.00;98188.22;5122824;28;19983;-62
2022/08/24 10:30:46;;;;;;;;;;;;;;;24.85;100.00;98180.78;5124934;28;19951;-62
2022/08/24 10:33:17;;;;;;;;;;;;;;;25.24;100.00;98177.91;5113051;28;19923;-62
2022/08/24 10:35:54;;;;;;;;;;;;;;;25.28;100.00;98185.41;5112854;28;19963;-63
2022/08/24 10:41:37;;;;;;;;;;;;;;;25.25;100.00;98195.13;5112912;28;19950;-61
2022/08/24 10:44:16;;;;;;;;;;;;;;;24.65;100.00;98183.34;5110634;28;19967;-61
2022/08/24 10:46:49;;;;;;;;;;;;;;;24.85;100.00;98187.00;5121012;28;19954;-61
2022/08/24 10:49:42;;;;;;;;;;;;;;;24.94;100.00;98178.69;5111471;28;19924;-61
2022/08/24 10:52:41;;;;;;;;;;;;;;;25.12;100.00;98174.47;5121150;28;19970;-61
2022/08/24 10:55:13;;;;;;;;;;;;;;;25.17;100.00;98182.41;5130138;27;19930;-62
2022/08/24 10:57:43;;;;;;;;;;;;;;;25.20;100.00;98181.69;5120987;28;19931;-62
2022/08/24 11:00:11;;;;;;;;;;;;;;;25.32;100.00;98167.94;5121000;28;19963;-61
2022/08/24 11:02:39;;;;;;;;;;;;;;;25.35;100.00;98172.69;5120530;28;19927;-62
2022/08/24 11:05:06;;;;;;;;;;;;;;;25.49;100.00;98167.63;5123686;28;19935;-61
2022/08/24 11:07:35;;;;;;;;;;;;;;;25.39;100.00;98168.13;5124170;28;19963;-62
2022/08/24 11:10:02;;;;;;;;;;;;;;;25.46;100.00;98170.25;5121481;28;19924;-63
2022/08/24 11:12:30;;;;;;;;;;;;;;;25.49;100.00;98166.81;5120717;28;19924;-62
2022/08/24 11:14:58;;;;;;;;;;;;;;;25.53;100.00;98167.72;5122474;28;20400;-61
2022/08/24 11:17:26;;;;;;;;;;;;;;;25.40;100.00;98166.19;5124325;28;19955;-63
2022/08/24 11:19:52;;;;;;;;;;;;;;;25.67;98.54;98166.09;5122710;28;20003;-60
2022/08/24 11:22:29;;;;;;;;;;;;;;;25.56;98.32;98175.22;5120575;28;19984;-61
2022/08/24 11:24:58;;;;;;;;;;;;;;;25.42;99.48;98181.09;5129502;27;19923;-62
2022/08/24 11:27:29;;;;;;;;;;;;;;;25.38;100.00;98165.75;5120574;28;19946;-61
2022/08/24 11:30:13;;;;;;;;;;;;;;;25.40;99.91;98164.25;5121998;28;19924;-61
2022/08/24 11:32:41;;;;;;;;;;;;;;;25.25;100.00;98168.56;5123346;28;20116;-61
2022/08/24 11:35:14;;;;;;;;;;;;;;;25.41;100.00;98165.03;5120204;28;19963;-61
2022/08/24 11:37:40;;;;;;;;;;;;;;;25.55;98.21;98166.22;5119878;28;19920;-62
2022/08/24 11:40:09;;;;;;;;;;;;;;;25.58;95.28;98159.22;5123030;28;19959;-62
2022/08/24 11:42:43;;;;;;;;;;;;;;;25.51;97.50;98164.53;5123322;28;19970;-62
2022/08/24 11:45:13;;;;;;;;;;;;;;;25.39;99.20;98168.13;5111360;28;19958;-61
2022/08/24 11:47:47;;;;;;;;;;;;;;;25.51;98.21;98159.84;5111073;28;19991;-62
2022/08/24 11:50:19;;;;;;;;;;;;;;;25.50;98.77;98163.72;5115617;28;19946;-62
2022/08/24 11:52:51;;;;;;;;;;;;;;;25.75;97.32;98159.63;5122850;28;19938;-62
2022/08/24 11:55:22;;;;;;;;;;;;;;;25.80;96.79;98161.31;5120875;27;19956;-62
2022/08/24 11:57:52;;;;;;;;;;;;;;;25.81;96.83;98154.66;5120037;28;19923;-62
2022/08/24 12:00:20;;;;;;;;;;;;;;;25.88;95.76;98154.03;5122602;28;19931;-61
2022/08/24 12:02:54;;;;;;;;;;;;;;;26.06;93.13;98152.47;5122342;28;19966;-61
2022/08/24 12:05:24;;;;;;;;;;;;;;;26.03;94.37;98164.94;5119563;28;19924;-62
2022/08/24 12:07:59;;;;;;;;;;;;;;;26.02;94.80;98165.31;5120475;28;19958;-63
2022/08/24 12:10:30;;;;;;;;;;;;;;;26.16;93.90;98168.38;5123013;28;19966;-61
2022/08/24 12:13:02;;;;;;;;;;;;;;;25.73;96.55;98169.34;5120702;28;19955;-61
2022/08/24 12:15:36;;;;;;;;;;;;;;;25.73;96.11;98167.41;5119466;28;19928;-61
2022/08/24 12:18:04;;;;;;;;;;;;;;;25.65;96.50;98154.72;5122286;28;19959;-62
2022/08/24 12:20:32;;;;;;;;;;;;;;;26.11;92.37;98160.44;5122759;28;19954;-62
2022/08/24 12:23:00;;;;;;;;;;;;;;;26.14;92.21;98165.19;5120260;28;19978;-61
2022/08/24 12:28:14;;;;;;;;;;;;;;;26.40;89.05;98165.38;5118690;28;19947;-62
2022/08/24 12:30:41;;;;;;;;;;;;;;;26.06;91.23;98161.50;5118529;28;19928;-61
2022/08/24 12:33:10;;;;;;;;;;;;;;;26.29;89.85;98147.94;5122007;28;19920;-63
2022/08/24 12:35:39;;;;;;;;;;;;;;;26.31;89.90;98151.09;5122352;28;19959;-61
2022/08/24 12:38:07;;;;;;;;;;;;;;;26.28;90.17;98151.81;5118737;28;20010;-61
2022/08/24 12:40:38;;;;;;;;;;;;;;;26.26;89.82;98138.50;5118809;28;20002;-62
2022/08/24 12:43:07;;;;;;;;;;;;;;;25.81;92.67;98151.16;5121593;28;19966;-61
2022/08/24 12:45:34;;;;;;;;;;;;;;;26.18;90.77;98144.19;5122109;28;19924;-61
2022/08/24 12:48:05;;;;;;;;;;;;;;;26.13;90.92;98138.97;5119468;28;19928;-62
2022/08/24 12:50:35;;;;;;;;;;;;;;;26.19;90.23;98145.75;5118279;28;19982;-61
2022/08/24 12:53:16;;;;;;;;;;;;;;;26.47;87.92;98140.88;5120880;28;19924;-61
2022/08/24 12:55:51;;;;;;;;;;;;;;;26.72;86.08;98135.88;5122738;27;19991;-61
2022/08/24 12:58:32;;;;;;;;;;;;;;;26.88;85.27;98138.53;5109889;28;19955;-62
2022/08/24 13:01:02;;;;;;;;;;;;;;;26.89;83.61;98129.16;5109710;28;19950;-61